Latest Coastal Weather Observations for Warrnambool

IDV60701

Issued at 9:11 pm EST Wednesday 25 May 2016 (issued every 10 minutes, with the page automatically refreshed every 10 minutes)

About coastal observations | Map of coastal stations | Coastal observations for VIC | Marine services | Other Formats
Station Details ID: 090186 Name: WARRNAMBOOL AIRPORT NDB Lat: -38.29 Lon: 142.45 Height: 70.8 m
Data from the previous 72 hours. | See also: Recent months at Warrnambool
Date/Time
EST
Temp

°C
Wind Pressure Rain
since 9am
mm
Weather Cloud Vis
km
Sea
Height
m
Swell
Dir
 
Speed
knots
Gust
knots
hPa Trend Height
m
Period
s
Dir
25/09:00pm 10.6 N 9 11 1006.2 - 8.6 Recent precip. Cloudy - - - - -
25/08:30pm 10.6 N 10 12 1006.3 - 8.6 - Cloudy - - - - -
25/08:00pm 10.6 N 11 15 1006.4 - 8.4 - Cloudy - - - - -
25/07:30pm 10.6 N 13 17 1006.6 - 8.4 - Cloudy 8 - - - -
25/07:00pm 10.6 N 13 17 1006.5 - 6.8 - Cloudy 9 - - - -
25/06:42pm 10.6 N 13 16 1006.7 - 5.8 - Partly cloudy 6 - - - -
25/06:30pm 10.6 N 12 16 1006.7 - 4.8 - Partly cloudy 5 - - - -
25/06:22pm 10.6 N 12 16 1006.6 - 4.0 - Partly cloudy 5 - - - -
25/06:00pm 10.8 N 14 19 1006.6 - 2.8 Showers Cloudy 7 - - - -
25/05:30pm 11.0 NNW 14 20 1006.8 - 2.4 - Cloudy 10 - - - -
25/05:00pm 11.2 NNW 14 19 1006.8 - 2.0 - Cloudy 10 - - - -
25/04:30pm 11.1 N 16 21 1006.6 - 2.0 - Partly cloudy 10 - - - -
25/04:00pm 10.9 N 17 21 1006.5 - 2.0 - Partly cloudy 10 - - - -
25/03:30pm 10.9 N 17 24 1006.7 - 1.8 - Partly cloudy 10 - - - -
25/03:00pm 10.7 N 16 21 1006.7 - 1.6 Rain Cloudy 10 - - - -
25/02:30pm 10.9 N 16 21 1007.2 - 1.0 - Partly cloudy 10 - - - -
25/02:00pm 10.7 N 15 22 1007.4 - 0.6 - Partly cloudy 10 - - - -
25/01:46pm 10.8 N 17 25 1007.7 - 0.6 - Partly cloudy 10 - - - -
25/01:35pm 10.9 N 16 22 1007.8 - 0.4 - Partly cloudy 5 - - - -
25/01:30pm 11.0 N 16 21 1007.9 - 0.4 - Partly cloudy 8 - - - -
25/01:00pm 11.0 N 17 24 1008.2 - 0.0 - Partly cloudy 10 - - - -
25/12:30pm 11.0 N 18 25 1008.6 - 0.0 - Partly cloudy 10 - - - -
25/12:00pm 11.3 NNW 17 26 1009.1 - 0.0 Showers Cloudy 10 - - - -
25/11:30am 11.9 N 19 25 1009.4 - 0.0 - Partly cloudy 10 - - - -
25/11:00am 12.1 N 18 24 1010.2 - 0.0 - Partly cloudy 10 - - - -
25/10:30am 12.4 N 13 18 1010.1 - 0.0 - Cloudy 10 - - - -
25/10:00am 12.0 N 14 17 1010.3 - 0.0 - - 10 - - - -
25/09:30am 11.7 N 14 19 1010.3 - 0.0 - Partly cloudy 10 - - - -
25/09:00am 11.2 N 12 17 1010.8 - 0.0 - Cloudy 10 - - - -
25/08:30am 11.1 N 12 16 1011.1 - 0.0 - Partly cloudy 10 - - - -
25/08:00am 11.1 NNE 12 16 1011.3 - 0.0 - Cloudy 10 - - - -
25/07:30am 11.2 N 15 20 1011.5 - 0.0 - Partly cloudy 10 - - - -
25/07:00am 11.0 NNE 13 17 1011.5 - 0.0 - - 10 - - - -
25/06:30am 10.7 N 13 16 1011.8 - 0.0 - - 10 - - - -
25/06:00am 10.5 NNE 12 15 1012.1 - 0.0 - Cloudy 10 - - - -
25/05:30am 10.2 N 10 13 1012.7 - 0.0 - - 10 - - - -
25/05:00am 10.4 N 9 11 1013.1 - 0.0 - - 10 - - - -
25/04:30am 11.2 N 11 14 1013.0 - 0.0 - - 10 - - - -
25/04:00am 10.8 NNE 10 12 1013.0 - 0.0 - - 10 - - - -
25/03:30am 10.6 NNE 10 13 1013.6 - 0.0 - - 10 - - - -
25/03:00am 10.1 N 9 11 1014.2 - 0.0 - Cloudy 10 - - - -
25/02:30am 9.9 NNE 11 12 1014.5 - 0.0 - - 10 - - - -
25/02:00am 9.4 N 9 12 1015.0 - 0.0 - - 10 - - - -
25/01:30am 9.1 N 10 12 1015.5 - 0.0 - - 10 - - - -
25/01:00am 9.2 NNE 9 11 1015.9 - 0.0 - - 10 - - - -
25/12:30am 8.4 NNE 8 9 1016.2 - 0.0 - - 10 - - - -
25/12:00am 9.1 NNE 8 9 1016.7 - 0.0 - - 10 - - - -
 
Date/Time
EST
Temp

°C
Wind Pressure Rain
since 9am
mm
Weather Cloud Vis
km
Sea
Height
m
Swell
Dir
 
Speed
knots
Gust
knots
hPa Trend Height
m
Period
s
Dir
24/11:30pm 8.7 NNE 8 8 1016.7 - 0.0 - - 10 - - - -
24/11:00pm 9.0 NNE 7 8 1017.1 - 0.0 - - 10 - - - -
24/10:30pm 9.3 NNE 7 8 1017.3 - 0.0 - - 10 - - - -
24/10:00pm 9.8 NNE 8 9 1017.9 - 0.0 - - 10 - - - -
24/09:30pm 9.7 NNE 8 8 1017.9 - 0.0 - - 10 - - - -
24/09:00pm 9.6 NNE 7 8 1018.0 - 0.0 - - 10 - - - -
24/08:49pm 9.2 NNE 7 8 1018.2 - 0.0 - - 10 - - - -
24/08:30pm 9.3 NNE 7 8 1018.4 - 0.0 - - 3 - - - -
24/08:14pm 9.6 NNE 7 8 1018.4 - 0.0 - - 5 - - - -
24/08:00pm 9.5 NNE 6 7 1018.5 - 0.0 - - 7 - - - -
24/07:30pm 9.6 NNE 7 8 1018.6 - 0.0 - - 7 - - - -
24/07:00pm 9.9 NE 4 6 1018.8 - 0.0 - - 10 - - - -
24/06:30pm 9.8 ENE 4 4 1018.9 - 0.0 - - 10 - - - -
24/06:00pm 11.6 E 1 4 1018.9 - 0.0 - Mostly clear 10 - - - -
24/05:30pm 12.8 CALM 0 0 1018.9 - 0.0 - Partly cloudy 10 - - - -
24/05:00pm 13.7 CALM 0 0 1018.8 - 0.0 - Partly cloudy 10 - - - -
24/04:30pm 14.8 CALM 0 0 1018.8 - 0.0 - Partly cloudy 10 - - - -
24/04:00pm 15.4 CALM 0 0 1018.7 - 0.0 - Partly cloudy 10 - - - -
24/03:30pm 15.4 WNW 4 5 1018.8 - 0.0 - Partly cloudy 10 - - - -
24/03:23pm 15.6 WNW 4 5 1018.8 - 0.0 - Partly cloudy 10 - - - -
24/03:03pm 15.2 W 5 7 1018.9 - 0.0 - Partly cloudy 5 - - - -
24/03:00pm 15.1 W 5 7 1018.9 - 0.0 - Mostly cloudy 10 - - - -
24/02:30pm 15.4 W 7 10 1019.1 - 0.0 - Partly cloudy 10 - - - -
24/02:00pm 14.9 NW 6 9 1019.3 - 0.0 - Cloudy 10 - - - -
24/01:30pm 15.2 WNW 7 10 1019.5 - 0.0 - Cloudy 10 - - - -
24/01:00pm 14.8 WNW 7 11 1019.7 - 0.0 - Partly cloudy 10 - - - -
24/12:30pm 15.0 WSW 8 11 1020.1 - 0.0 - Cloudy 10 - - - -
24/12:00pm 15.0 WNW 7 9 1020.6 - 0.0 - Mostly clear 10 - - - -
24/11:30am 14.7 WNW 6 10 1020.9 - 0.0 - - 10 - - - -
24/11:00am 14.4 WNW 7 9 1021.4 - 0.0 - - 10 - - - -
24/10:30am 13.7 WNW 6 8 1021.8 - 0.0 - Partly cloudy 10 - - - -
24/10:00am 12.8 NW 7 9 1021.9 - 0.0 - Partly cloudy 10 - - - -
24/09:30am 11.5 NW 7 9 1021.5 - 0.0 - Cloudy 10 - - - -
24/09:00am 10.3 NW 8 11 1021.6 - 3.6 - Mostly cloudy 10 - - - -
24/08:30am 9.7 NW 9 11 1021.4 - 3.6 - Cloudy 10 - - - -
24/08:00am 9.4 NW 8 10 1021.1 - 3.6 - Cloudy 10 - - - -
24/07:30am 8.7 NW 9 12 1021.3 - 3.6 - Partly cloudy 10 - - - -
24/07:00am 9.2 NW 6 8 1020.8 - 3.6 - Cloudy 10 - - - -
24/06:30am 9.4 WNW 6 7 1020.4 - 3.6 - Cloudy 10 - - - -
24/06:00am 9.2 NW 6 9 1020.3 - 3.6 - Cloudy 10 - - - -
24/05:30am 8.5 NW 8 9 1020.1 - 3.6 - Partly cloudy 10 - - - -
24/05:00am 8.4 WNW 7 8 1020.1 - 3.6 - Partly cloudy 10 - - - -
24/04:30am 9.1 WNW 7 10 1020.0 - 3.6 - Partly cloudy 10 - - - -
24/04:00am 9.0 WNW 6 9 1019.8 - 3.6 - Partly cloudy 10 - - - -
24/03:30am 9.5 WNW 7 9 1019.9 - 3.6 - Partly cloudy 10 - - - -
24/03:00am 9.4 NW 7 10 1019.8 - 3.6 - Mostly cloudy 10 - - - -
24/02:30am 9.2 NW 10 14 1019.8 - 3.6 - - 10 - - - -
24/02:00am 9.1 NW 9 13 1019.7 - 3.6 - - 10 - - - -
24/01:30am 9.4 WNW 7 12 1019.7 - 3.6 - Partly cloudy 10 - - - -
24/01:00am 9.3 NW 8 10 1019.6 - 3.6 - Partly cloudy 10 - - - -
24/12:30am 9.4 NW 7 10 1019.8 - 3.6 - Partly cloudy 10 - - - -
24/12:00am 9.8 NW 9 13 1019.9 - 3.4 Showers Cloudy 10 - - - -
 
Date/Time
EST
Temp

°C
Wind Pressure Rain
since 9am
mm
Weather Cloud Vis
km
Sea
Height
m
Swell
Dir
 
Speed
knots
Gust
knots
hPa Trend Height
m
Period
s
Dir
23/11:30pm 9.8 NW 8 11 1019.9 - 3.4 - Partly cloudy 10 - - - -
23/11:00pm 9.7 NW 9 11 1020.1 - 3.4 - Partly cloudy 10 - - - -
23/10:30pm 9.0 NW 8 9 1020.2 - 3.4 - - 10 - - - -
23/10:00pm 9.2 NW 7 9 1020.0 - 3.4 - Partly cloudy 10 - - - -
23/09:30pm 9.0 NW 8 11 1019.9 - 3.4 - Partly cloudy 10 - - - -
23/09:00pm 9.2 NW 8 10 1019.9 - 3.4 - Partly cloudy 10 - - - -
23/08:30pm 8.6 NW 8 9 1019.8 - 3.4 - - 10 - - - -
23/08:00pm 8.4 NW 6 8 1019.6 - 3.4 - Partly cloudy 10 - - - -
23/07:30pm 10.2 WNW 8 10 1019.2 - 3.4 - - 10 - - - -
23/07:00pm 10.7 W 10 12 1019.0 - 3.4 - Partly cloudy 10 - - - -
23/06:30pm 10.9 W 11 15 1018.8 - 3.4 - Partly cloudy 10 - - - -
23/06:00pm 11.1 W 11 13 1018.3 - 3.4 Rain Mostly cloudy 10 - - - -
23/05:30pm 11.5 WSW 14 19 1018.1 - 3.4 - Partly cloudy 10 - - - -
23/05:29pm 11.5 WSW 14 19 1018.1 - 3.4 - Partly cloudy 10 - - - -
23/05:25pm 11.5 WSW 14 19 1018.1 - 3.4 - Partly cloudy 10 - - - -
23/05:11pm 11.9 WSW 15 24 1018.0 - 3.2 - Partly cloudy 2 - - - -
23/05:03pm 12.2 SW 12 16 1017.9 - 1.8 - Partly cloudy 5 - - - -
23/05:00pm 12.4 SW 12 15 1017.8 - 0.6 - Partly cloudy 10 - - - -
23/04:30pm 12.8 W 9 13 1017.4 - 0.2 - Partly cloudy 10 - - - -
23/04:00pm 12.5 W 11 14 1017.4 - 0.2 - Partly cloudy 10 - - - -
23/03:30pm 13.0 NW 11 16 1017.3 - 0.2 - Partly cloudy 10 - - - -
23/03:00pm 12.9 NW 14 19 1017.3 - 0.2 - Cloudy 10 - - - -
23/02:30pm 12.8 WNW 13 16 1017.3 - 0.2 - Partly cloudy 10 - - - -
23/02:00pm 12.9 W 15 21 1017.4 - 0.2 - Partly cloudy 10 - - - -
23/01:30pm 12.2 WNW 17 23 1017.7 - 0.2 - Partly cloudy 10 - - - -
23/01:00pm 12.5 WNW 10 19 1017.5 - 0.0 - Partly cloudy 10 - - - -
23/12:30pm 13.8 WNW 13 19 1017.5 - 0.0 - Partly cloudy 10 - - - -
23/12:00pm 13.4 NW 15 22 1017.6 - 0.0 - Cloudy 10 - - - -
23/11:30am 13.1 WNW 11 17 1018.0 - 0.0 - Partly cloudy 10 - - - -
23/11:00am 12.9 NW 13 19 1018.0 - 0.0 - - 10 - - - -
23/10:30am 12.2 NW 13 19 1017.9 - 0.0 - - 10 - - - -
23/10:00am 11.6 NW 16 22 1017.8 - 0.0 - Partly cloudy 10 - - - -
23/09:30am 11.1 WNW 10 15 1017.7 - 0.0 - Partly cloudy 10 - - - -
23/09:00am 10.0 NW 13 16 1017.1 - 17.2 - Cloudy 10 - - - -
23/08:30am 9.5 WNW 9 13 1016.6 - 17.2 - Partly cloudy 10 - - - -
23/08:00am 8.7 NW 13 18 1016.2 - 17.2 - Partly cloudy 10 - - - -
23/07:30am 9.1 NW 10 14 1015.5 - 17.2 - Partly cloudy 10 - - - -
23/07:00am 9.3 WNW 13 16 1014.9 - 17.2 - Partly cloudy 10 - - - -
23/06:30am 9.6 WNW 11 17 1014.4 - 17.2 - Partly cloudy 10 - - - -
23/06:27am 9.5 WNW 11 17 1014.5 - 17.2 - Partly cloudy 6 - - - -
23/06:00am 9.4 W 24 36 1014.3 - 16.0 Showers Cloudy 10 - - - -
23/05:52am 9.8 WNW 15 36 1013.9 - 16.0 - Partly cloudy 10 - - - -
23/05:30am 9.7 WNW 12 18 1013.1 - 15.6 - Partly cloudy 10 - - - -
23/05:00am 9.8 WNW 14 23 1012.4 - 15.6 - Partly cloudy 10 - - - -
23/04:53am 10.0 WNW 15 23 1012.4 - 15.6 - Partly cloudy 8 - - - -
23/04:33am 10.3 NW 16 23 1012.0 - 14.6 - Partly cloudy 5 - - - -
23/04:30am 10.4 NW 17 23 1011.9 - 14.6 - Partly cloudy 9 - - - -
23/04:00am 10.7 NW 15 22 1011.1 - 14.2 - Partly cloudy 10 - - - -
23/03:30am 10.1 NW 11 15 1010.6 - 14.2 - Partly cloudy 10 - - - -
23/03:00am 10.1 NNW 12 15 1010.3 - 14.2 Recent precip. Partly cloudy - - - - -
23/02:30am 10.6 NW 16 24 1010.4 - 14.2 - Partly cloudy - - - - -
23/02:08am 11.7 NW 19 38 1010.5 - 13.8 - Partly cloudy - - - - -
23/02:05am 12.3 NW 17 27 1010.5 - 12.2 - Partly cloudy - - - - -
23/02:00am 12.6 NNW 15 22 1010.0 - 10.6 - Partly cloudy - - - - -
23/01:30am 12.5 NNW 13 18 1010.0 - 10.6 - Partly cloudy - - - - -
23/01:00am 12.4 NNW 15 20 1009.5 - 10.6 - Partly cloudy - - - - -
23/12:30am 12.4 NNW 13 17 1009.0 - 10.6 - Partly cloudy - - - - -
23/12:00am 12.2 NNW 13 16 1009.4 - 10.6 Showers Cloudy 10 - - - -
 
Date/Time
EST
Temp

°C
Wind Pressure Rain
since 9am
mm
Weather Cloud Vis
km
Sea
Height
m
Swell
Dir
 
Speed
knots
Gust
knots
hPa Trend Height
m
Period
s
Dir
22/11:30pm 12.4 NW 12 17 1009.7 - 10.6 - Partly cloudy 10 - - - -
22/11:00pm 12.7 NW 14 19 1010.2 - 10.2 - Partly cloudy 10 - - - -
22/10:30pm 12.9 NW 14 20 1009.6 - 9.8 - Partly cloudy 10 - - - -
22/10:13pm 13.3 NW 17 23 1010.0 - 9.8 - Partly cloudy 10 - - - -
22/10:11pm 13.3 NW 17 22 1010.0 - 9.8 - Partly cloudy 10 - - - -
22/10:00pm 13.8 NW 20 27 1009.8 - 9.8 - Partly cloudy 4 - - - -
22/09:51pm 14.2 NW 18 28 1009.6 - 9.4 - Partly cloudy 2 - - - -
22/09:48pm 14.2 NNW 15 28 1009.6 - 8.2 - Partly cloudy 2 - - - -
22/09:30pm 14.3 NNW 15 20 1009.0 - 4.8 - Partly cloudy 5 - - - -

Other Formats:

Comma delimited format used in spreadsheet applications
http://www.bom.gov.au/fwo/IDV60701/IDV60701.94837.axf

JavaScript Object Notation format (JSON) in row-major order
http://www.bom.gov.au/fwo/IDV60701/IDV60701.94837.json